createdAt,value
2022-10-22T00:00:02.263Z,10.9
2022-10-22T00:01:01.945Z,10.9
2022-10-22T00:02:01.882Z,11
2022-10-22T00:03:01.910Z,10.9
2022-10-22T00:04:02.033Z,10.9
2022-10-22T00:05:02.077Z,10.9
2022-10-22T00:06:02.011Z,10.9
2022-10-22T00:07:02.028Z,11
2022-10-22T00:08:01.981Z,11
2022-10-22T00:09:02.017Z,10.9
2022-10-22T00:10:02.082Z,10.9
2022-10-22T00:11:01.969Z,10.9
2022-10-22T00:12:01.942Z,10.9
2022-10-22T00:13:01.886Z,10.8
2022-10-22T00:14:01.767Z,10.9
2022-10-22T00:15:01.711Z,10.9
2022-10-22T00:16:01.412Z,10.9
2022-10-22T00:17:01.354Z,10.9
2022-10-22T00:18:02.325Z,10.9
2022-10-22T00:19:02.252Z,10.9
2022-10-22T00:20:01.462Z,10.9
2022-10-22T00:21:01.368Z,11
2022-10-22T00:22:02.310Z,10.9
2022-10-22T00:23:02.260Z,10.9
2022-10-22T00:24:02.223Z,10.9
2022-10-22T00:25:02.175Z,10.8
2022-10-22T00:26:02.205Z,10.9
2022-10-22T00:27:02.107Z,10.9
2022-10-22T00:28:02.058Z,10.9
2022-10-22T00:29:01.927Z,10.9
2022-10-22T00:30:01.883Z,10.9
2022-10-22T00:31:01.691Z,10.9
2022-10-22T00:32:01.583Z,10.9
2022-10-22T00:33:01.490Z,10.9
2022-10-22T00:34:01.401Z,10.9
2022-10-22T00:35:01.326Z,10.9
2022-10-22T00:36:02.278Z,10.9
2022-10-22T00:37:02.211Z,10.9
2022-10-22T00:38:02.157Z,10.9
2022-10-22T00:39:02.093Z,10.9
2022-10-22T00:40:02.062Z,10.8
2022-10-22T00:42:01.906Z,10.8
2022-10-22T00:43:01.791Z,10.9
2022-10-22T00:44:01.735Z,10.9
2022-10-22T00:45:01.637Z,10.9
2022-10-22T00:46:01.398Z,10.9
2022-10-22T00:47:02.280Z,10.9
2022-10-22T00:48:02.239Z,10.9
2022-10-22T00:49:02.197Z,10.9
2022-10-22T00:51:01.921Z,10.9
2022-10-22T00:52:01.890Z,10.9
2022-10-22T00:53:01.849Z,10.9
2022-10-22T00:54:01.732Z,10.9
2022-10-22T00:55:01.683Z,10.8
2022-10-22T00:56:01.610Z,10.8
2022-10-22T00:57:01.512Z,10.8
2022-10-22T00:58:01.409Z,10.8
2022-10-22T00:59:01.433Z,10.7
2022-10-22T01:00:01.367Z,10.8
2022-10-22T01:01:02.281Z,10.8
2022-10-22T01:02:02.238Z,10.9
2022-10-22T01:03:02.190Z,10.9
2022-10-22T01:04:02.159Z,10.9
2022-10-22T01:05:02.097Z,10.9
2022-10-22T01:06:02.035Z,10.9
2022-10-22T01:07:01.940Z,10.8
2022-10-22T01:08:01.906Z,10.8
2022-10-22T01:09:02.061Z,10.8
2022-10-22T01:10:02.195Z,10.8
2022-10-22T01:11:02.145Z,10.8
2022-10-22T01:12:02.056Z,10.8
2022-10-22T01:13:01.982Z,10.8
2022-10-22T01:14:01.924Z,10.8
2022-10-22T01:15:01.914Z,10.9
2022-10-22T01:16:01.601Z,10.8
2022-10-22T01:17:01.467Z,10.8
2022-10-22T01:18:01.384Z,10.8
2022-10-22T01:19:01.353Z,10.8
2022-10-22T01:20:02.330Z,10.8
2022-10-22T01:21:02.304Z,10.8
2022-10-22T01:22:02.206Z,10.8
2022-10-22T01:23:02.142Z,10.7
2022-10-22T01:24:02.102Z,10.8
2022-10-22T01:25:02.032Z,10.8
2022-10-22T01:26:01.945Z,10.7
2022-10-22T01:27:01.980Z,10.8
2022-10-22T01:28:01.880Z,10.8
2022-10-22T01:29:01.770Z,10.7
2022-10-22T01:30:01.701Z,10.8
2022-10-22T01:31:01.429Z,10.7
2022-10-22T01:32:01.415Z,10.7
2022-10-22T01:33:02.328Z,10.7
2022-10-22T01:34:02.267Z,10.7
2022-10-22T01:35:02.217Z,10.7
2022-10-22T01:36:02.173Z,10.7
2022-10-22T01:37:02.108Z,10.8
2022-10-22T01:38:02.054Z,10.7
2022-10-22T01:39:02.021Z,10.7
2022-10-22T01:40:01.978Z,10.7
2022-10-22T01:41:02.005Z,10.7
2022-10-22T01:42:01.955Z,10.7
2022-10-22T01:43:01.852Z,10.7
2022-10-22T01:44:01.801Z,10.8
2022-10-22T01:45:01.761Z,10.7
2022-10-22T01:46:01.410Z,10.7
2022-10-22T01:47:01.398Z,10.7
2022-10-22T01:48:02.314Z,10.7
2022-10-22T01:49:02.247Z,10.6
2022-10-22T01:50:02.186Z,10.7
2022-10-22T01:51:02.149Z,10.7
2022-10-22T01:52:02.151Z,10.7
2022-10-22T01:53:02.076Z,10.7
2022-10-22T01:54:01.991Z,10.7
2022-10-22T01:55:01.918Z,10.6
2022-10-22T01:56:01.919Z,10.7
2022-10-22T01:57:01.801Z,10.7
2022-10-22T01:58:01.756Z,10.6
2022-10-22T01:59:01.706Z,10.6
2022-10-22T02:00:01.742Z,10.6
2022-10-22T02:01:02.075Z,10.6
2022-10-22T02:02:02.220Z,10.7
2022-10-22T02:03:02.231Z,10.7
2022-10-22T02:04:02.189Z,10.6
2022-10-22T02:05:02.123Z,10.7
2022-10-22T02:06:02.135Z,10.7
2022-10-22T02:07:02.044Z,10.7
2022-10-22T02:08:02.021Z,10.7
2022-10-22T02:09:02.019Z,10.6
2022-10-22T02:10:02.076Z,10.6
2022-10-22T02:11:02.010Z,10.6
2022-10-22T02:12:01.912Z,10.6
2022-10-22T02:13:01.988Z,10.6
2022-10-22T02:14:01.939Z,10.6
2022-10-22T02:15:01.885Z,10.7
2022-10-22T02:16:01.901Z,10.7
2022-10-22T02:17:01.797Z,10.6
2022-10-22T02:18:01.693Z,10.6
2022-10-22T02:19:01.596Z,10.6
2022-10-22T02:20:01.504Z,10.6
2022-10-22T02:21:01.407Z,10.6
2022-10-22T02:22:01.379Z,10.7
2022-10-22T02:23:02.352Z,10.6
2022-10-22T02:24:02.260Z,10.6
2022-10-22T02:25:02.254Z,10.6
2022-10-22T02:26:02.197Z,10.6
2022-10-22T02:27:02.184Z,10.6
2022-10-22T02:28:02.105Z,10.6
2022-10-22T02:29:02.091Z,10.7
2022-10-22T02:30:02.034Z,10.6
2022-10-22T02:31:01.744Z,10.6
2022-10-22T02:32:01.705Z,10.6
2022-10-22T02:33:01.601Z,10.6
2022-10-22T02:34:01.537Z,10.5
2022-10-22T02:35:01.479Z,10.5
2022-10-22T02:36:01.395Z,10.6
2022-10-22T02:37:02.322Z,10.5
2022-10-22T02:38:02.237Z,10.5
2022-10-22T02:39:02.225Z,10.6
2022-10-22T02:40:02.115Z,10.6
2022-10-22T02:41:02.027Z,10.6
2022-10-22T02:42:02.026Z,10.4
2022-10-22T02:43:01.934Z,10.5
2022-10-22T02:44:01.879Z,10.5
2022-10-22T02:45:01.782Z,10.5
2022-10-22T02:46:01.397Z,10.5
2022-10-22T02:47:01.391Z,10.5
2022-10-22T02:48:02.272Z,10.5
2022-10-22T02:49:02.265Z,10.5
2022-10-22T02:50:04.478Z,10.4
2022-10-22T02:51:02.049Z,10.4
2022-10-22T02:52:01.973Z,10.5
2022-10-22T02:53:01.983Z,10.5
2022-10-22T02:54:01.925Z,10.4
2022-10-22T02:55:01.955Z,10.4
2022-10-22T02:56:01.838Z,10.4
2022-10-22T02:57:01.745Z,10.4
2022-10-22T02:58:01.679Z,10.4
2022-10-22T02:59:01.675Z,10.5
2022-10-22T03:00:01.630Z,10.4
2022-10-22T03:01:01.418Z,10.5
2022-10-22T03:02:01.365Z,10.5
2022-10-22T03:03:02.372Z,10.5
2022-10-22T03:04:02.295Z,10.5
2022-10-22T03:05:02.273Z,10.4
2022-10-22T03:06:02.190Z,10.5
2022-10-22T03:07:02.136Z,10.5
2022-10-22T03:08:02.081Z,10.5
2022-10-22T03:09:02.005Z,10.5
2022-10-22T03:10:01.992Z,10.5
2022-10-22T03:11:01.901Z,10.5
2022-10-22T03:12:01.857Z,10.5
2022-10-22T03:13:01.783Z,10.5
2022-10-22T03:14:01.710Z,10.5
2022-10-22T03:15:01.668Z,10.5
2022-10-22T03:16:01.562Z,10.5
2022-10-22T03:17:01.470Z,10.5
2022-10-22T03:18:01.373Z,10.5
2022-10-22T03:19:02.426Z,10.5
2022-10-22T03:20:02.286Z,10.5
2022-10-22T03:21:02.186Z,10.5
2022-10-22T03:22:02.126Z,10.5
2022-10-22T03:23:01.981Z,10.5
2022-10-22T03:24:01.960Z,10.5
2022-10-22T03:25:01.923Z,10.5
2022-10-22T03:26:01.924Z,10.5
2022-10-22T03:27:01.873Z,10.5
2022-10-22T03:28:01.855Z,10.5
2022-10-22T03:29:01.795Z,10.5
2022-10-22T03:30:01.690Z,10.5
2022-10-22T03:31:01.454Z,10.5
2022-10-22T03:32:01.384Z,10.5
2022-10-22T03:33:01.367Z,10.5
2022-10-22T03:34:02.284Z,10.5
2022-10-22T03:35:02.266Z,10.5
2022-10-22T03:36:02.172Z,10.5
2022-10-22T03:37:02.126Z,10.6
2022-10-22T03:38:02.056Z,10.5
2022-10-22T03:39:02.008Z,10.5
2022-10-22T03:40:01.945Z,10.5
2022-10-22T03:41:01.875Z,10.4
2022-10-22T03:42:01.762Z,10.5
2022-10-22T03:43:01.706Z,10.5
2022-10-22T03:44:01.659Z,10.5
2022-10-22T03:45:01.585Z,10.5
2022-10-22T03:46:01.336Z,10.5
2022-10-22T03:47:02.708Z,10.5
2022-10-22T03:48:01.772Z,10.5
2022-10-22T03:49:01.745Z,10.4
2022-10-22T03:50:01.633Z,10.5
2022-10-22T03:51:01.554Z,10.5
2022-10-22T03:52:01.410Z,10.4
2022-10-22T03:53:01.359Z,10.4
2022-10-22T03:54:02.298Z,10.5
2022-10-22T03:55:02.285Z,10.5
2022-10-22T03:56:02.193Z,10.5
2022-10-22T03:57:02.150Z,10.5
2022-10-22T03:58:02.139Z,10.4
2022-10-22T03:59:02.082Z,10.4
2022-10-22T04:00:02.131Z,10.5
2022-10-22T04:01:01.822Z,10.5
2022-10-22T04:02:01.848Z,10.5
2022-10-22T04:03:01.815Z,10.6
2022-10-22T04:04:01.766Z,10.5
2022-10-22T04:05:01.767Z,10.5
2022-10-22T04:06:01.858Z,10.5
2022-10-22T04:07:01.763Z,10.5
2022-10-22T04:08:01.668Z,10.5
2022-10-22T04:09:01.615Z,10.5
2022-10-22T04:10:01.615Z,10.5
2022-10-22T04:11:01.556Z,10.5
2022-10-22T04:12:01.439Z,10.5
2022-10-22T04:13:01.369Z,10.5
2022-10-22T04:14:02.311Z,10.5
2022-10-22T04:15:02.320Z,10.5
2022-10-22T04:16:01.949Z,10.5
2022-10-22T04:17:01.856Z,10.5
2022-10-22T04:18:01.828Z,10.5
2022-10-22T04:19:01.770Z,10.6
2022-10-22T04:20:01.723Z,10.5
2022-10-22T04:21:01.688Z,10.5
2022-10-22T04:22:01.660Z,10.5
2022-10-22T04:23:01.576Z,10.5
2022-10-22T04:24:01.510Z,10.5
2022-10-22T04:25:01.459Z,10.5
2022-10-22T04:26:01.374Z,10.5
2022-10-22T04:27:01.360Z,10.5
2022-10-22T04:28:02.315Z,10.5
2022-10-22T04:29:02.254Z,10.4
2022-10-22T04:30:02.220Z,10.3
2022-10-22T04:31:02.153Z,10.4
2022-10-22T04:32:02.116Z,10.4
2022-10-22T04:33:02.072Z,10.4
2022-10-22T04:34:02.017Z,10.4
2022-10-22T04:35:01.977Z,10.5
2022-10-22T04:36:01.911Z,10.5
2022-10-22T04:37:01.864Z,10.4
2022-10-22T04:38:01.753Z,10.4
2022-10-22T04:39:01.684Z,10.4
2022-10-22T04:40:01.571Z,10.4
2022-10-22T04:41:01.524Z,10.4
2022-10-22T04:42:01.434Z,10.5
2022-10-22T04:43:01.353Z,10.4
2022-10-22T04:44:02.290Z,10.4
2022-10-22T04:45:01.446Z,10.4
2022-10-22T04:46:01.420Z,10.5
2022-10-22T04:47:01.374Z,10.5
2022-10-22T04:48:02.306Z,10.5
2022-10-22T04:49:02.255Z,10.5
2022-10-22T04:50:02.243Z,10.5
2022-10-22T04:51:02.144Z,10.5
2022-10-22T04:52:02.111Z,10.5
2022-10-22T04:53:02.099Z,10.4
2022-10-22T04:54:02.018Z,10.5
2022-10-22T04:55:01.955Z,10.5
2022-10-22T04:56:01.897Z,10.5
2022-10-22T04:57:01.868Z,10.4
2022-10-22T04:58:01.810Z,10.5
2022-10-22T04:59:01.751Z,10.4
2022-10-22T05:00:01.695Z,10.5
2022-10-22T05:01:01.809Z,10.4
2022-10-22T05:02:01.799Z,10.5
2022-10-22T05:03:01.704Z,10.5
2022-10-22T05:04:01.613Z,10.4
2022-10-22T05:05:01.490Z,10.4
2022-10-22T05:06:01.477Z,10.5
2022-10-22T05:07:01.417Z,10.3
2022-10-22T05:08:01.356Z,10.4
2022-10-22T05:09:02.378Z,10.4
2022-10-22T05:10:01.549Z,10.4
2022-10-22T05:11:01.423Z,10.4
2022-10-22T05:12:01.377Z,10.4
2022-10-22T05:13:02.312Z,10.4
2022-10-22T05:14:02.230Z,10.4
2022-10-22T05:15:02.187Z,10.5
2022-10-22T05:16:02.201Z,10.4
2022-10-22T05:17:02.288Z,10.4
2022-10-22T05:18:02.114Z,10.4
2022-10-22T05:19:01.991Z,10.3
2022-10-22T05:20:01.914Z,10.3
2022-10-22T05:21:01.882Z,10.4
2022-10-22T05:22:01.829Z,10.4
2022-10-22T05:23:01.770Z,10.4
2022-10-22T05:24:01.786Z,10.4
2022-10-22T05:25:01.839Z,10.4
2022-10-22T05:26:01.773Z,10.3
2022-10-22T05:27:01.715Z,10.3
2022-10-22T05:28:01.704Z,10.3
2022-10-22T05:29:01.676Z,10.3
2022-10-22T05:30:01.624Z,10.3
2022-10-22T05:31:01.390Z,10.3
2022-10-22T05:32:01.355Z,10.3
2022-10-22T05:33:02.307Z,10.3
2022-10-22T05:34:02.250Z,10.3
2022-10-22T05:35:02.230Z,10.3
2022-10-22T05:36:02.135Z,10.3
2022-10-22T05:37:02.089Z,10.3
2022-10-22T05:38:02.038Z,10.3
2022-10-22T05:39:01.989Z,10.3
2022-10-22T05:40:06.826Z,10.3
2022-10-22T05:41:01.857Z,10.4
2022-10-22T05:42:01.806Z,10.3
2022-10-22T05:43:01.810Z,10.4
2022-10-22T05:44:01.732Z,10.4
2022-10-22T05:45:01.650Z,10.4
2022-10-22T05:46:02.286Z,10.4
2022-10-22T05:47:02.246Z,10.4
2022-10-22T05:48:02.154Z,10.4
2022-10-22T05:49:02.104Z,10.5
2022-10-22T05:50:02.024Z,10.5
2022-10-22T05:51:01.966Z,10.5
2022-10-22T05:52:01.898Z,10.5
2022-10-22T05:53:01.799Z,10.5
2022-10-22T05:54:01.748Z,10.5
2022-10-22T05:55:01.672Z,10.5
2022-10-22T05:56:01.615Z,10.5
2022-10-22T05:57:01.497Z,10.6
2022-10-22T05:58:01.422Z,10.6
2022-10-22T06:00:01.870Z,10.6
2022-10-22T06:01:01.460Z,10.7
2022-10-22T06:02:01.456Z,10.8
2022-10-22T06:03:01.382Z,10.8
2022-10-22T06:04:02.329Z,10.8
2022-10-22T06:05:02.283Z,10.8
2022-10-22T06:06:02.207Z,10.8
2022-10-22T06:07:02.141Z,10.8
2022-10-22T06:08:02.194Z,10.9
2022-10-22T06:09:02.183Z,10.9
2022-10-22T06:10:02.253Z,10.9
2022-10-22T06:11:02.234Z,10.9
2022-10-22T06:12:02.152Z,10.9
2022-10-22T06:13:02.096Z,10.9
2022-10-22T06:14:02.032Z,10.9
2022-10-22T06:15:01.970Z,11
2022-10-22T06:16:01.722Z,11
2022-10-22T06:17:01.650Z,10.8
2022-10-22T06:18:01.596Z,10.8
2022-10-22T06:19:01.548Z,10.9
2022-10-22T06:20:01.480Z,11
2022-10-22T06:21:01.573Z,11.1
2022-10-22T06:22:01.472Z,11.1
2022-10-22T06:23:01.391Z,11.1
2022-10-22T06:24:01.334Z,11.2
2022-10-22T06:25:02.401Z,11.1
2022-10-22T06:26:02.247Z,11
2022-10-22T06:27:02.247Z,11.2
2022-10-22T06:28:02.144Z,11.1
2022-10-22T06:29:02.153Z,11.2
2022-10-22T06:30:02.041Z,11.2
2022-10-22T06:31:01.996Z,11.2
2022-10-22T06:32:02.044Z,11.2
2022-10-22T06:33:02.010Z,11.1
2022-10-22T06:34:01.959Z,11.1
2022-10-22T06:35:01.925Z,11.1
2022-10-22T06:36:04.048Z,11.2
2022-10-22T06:37:01.567Z,11.1
2022-10-22T06:38:01.453Z,11
2022-10-22T06:39:01.372Z,11
2022-10-22T06:40:02.329Z,11
2022-10-22T06:41:02.238Z,11
2022-10-22T06:42:02.223Z,11
2022-10-22T06:43:02.183Z,11
2022-10-22T06:44:02.120Z,11
2022-10-22T06:46:02.049Z,11
2022-10-22T06:47:01.796Z,11
2022-10-22T06:48:01.676Z,11.1
2022-10-22T06:49:01.577Z,11.1
2022-10-22T06:50:01.515Z,11.1
2022-10-22T06:51:01.443Z,11.3
2022-10-22T06:52:01.392Z,11.3
2022-10-22T06:53:02.327Z,11.3
2022-10-22T06:54:02.283Z,11.4
2022-10-22T06:55:02.335Z,11.5
2022-10-22T06:56:02.235Z,11.5
2022-10-22T06:57:02.164Z,11.6
2022-10-22T06:58:02.108Z,11.5
2022-10-22T06:59:02.113Z,11.5
2022-10-22T07:00:02.030Z,11.4
2022-10-22T07:01:01.973Z,11.3
2022-10-22T07:02:02.184Z,11.4
2022-10-22T07:03:02.148Z,11.3
2022-10-22T07:04:02.175Z,11.3
2022-10-22T07:05:02.122Z,11.3
2022-10-22T07:06:02.066Z,11.3
2022-10-22T07:07:01.984Z,11.4
2022-10-22T07:08:01.909Z,11.5
2022-10-22T07:09:01.953Z,11.4
2022-10-22T07:10:02.077Z,11.4
2022-10-22T07:11:02.027Z,11.4
2022-10-22T07:12:01.980Z,11.5
2022-10-22T07:13:01.940Z,11.4
2022-10-22T07:14:01.845Z,11.4
2022-10-22T07:15:01.751Z,11.5
2022-10-22T07:16:01.687Z,11.5
2022-10-22T07:17:01.470Z,11.5
2022-10-22T07:18:01.406Z,11.5
2022-10-22T07:19:01.314Z,11.5
2022-10-22T07:20:02.349Z,11.5
2022-10-22T07:21:02.257Z,11.5
2022-10-22T07:22:02.205Z,11.5
2022-10-22T07:23:02.165Z,11.5
2022-10-22T07:24:02.112Z,11.5
2022-10-22T07:25:05.101Z,11.5
2022-10-22T07:26:02.283Z,11.5
2022-10-22T07:27:01.455Z,11.5
2022-10-22T07:28:01.407Z,11.6
2022-10-22T07:29:02.330Z,11.6
2022-10-22T07:30:02.395Z,11.6
2022-10-22T07:31:02.243Z,11.6
2022-10-22T07:32:01.861Z,11.6
2022-10-22T07:33:01.764Z,11.6
2022-10-22T07:34:01.653Z,11.7
2022-10-22T07:35:01.628Z,11.7
2022-10-22T07:36:01.501Z,11.7
2022-10-22T07:37:01.391Z,11.7
2022-10-22T07:38:01.356Z,11.7
2022-10-22T07:39:02.299Z,11.7
2022-10-22T07:40:02.937Z,11.8
2022-10-22T07:41:02.040Z,11.7
2022-10-22T07:42:01.975Z,11.7
2022-10-22T07:43:01.918Z,11.8
2022-10-22T07:44:01.822Z,11.8
2022-10-22T07:45:01.793Z,11.8
2022-10-22T07:46:02.094Z,11.9
2022-10-22T07:47:01.555Z,11.8
2022-10-22T07:48:01.442Z,11.9
2022-10-22T07:49:01.390Z,11.8
2022-10-22T07:50:02.338Z,11.9
2022-10-22T07:51:02.249Z,11.9
2022-10-22T07:52:02.232Z,11.9
2022-10-22T07:53:02.185Z,11.9
2022-10-22T07:54:02.232Z,11.9
2022-10-22T07:55:02.165Z,11.9
2022-10-22T07:56:02.191Z,12
2022-10-22T07:57:02.127Z,12
2022-10-22T07:58:02.032Z,12
2022-10-22T08:00:01.865Z,12.1
2022-10-22T08:01:01.838Z,12.2
2022-10-22T08:02:01.769Z,12.1
2022-10-22T08:03:01.708Z,12.2
2022-10-22T08:04:01.656Z,12.2
2022-10-22T08:05:01.596Z,12.1
2022-10-22T08:06:01.520Z,12.1
2022-10-22T08:07:01.446Z,12.1
2022-10-22T08:08:01.376Z,12.1
2022-10-22T08:09:01.375Z,12.2
2022-10-22T08:10:01.474Z,12.2
2022-10-22T08:11:01.406Z,12.2
2022-10-22T08:12:02.339Z,12.2
2022-10-22T08:13:02.287Z,12.2
2022-10-22T08:14:02.217Z,12.2
2022-10-22T08:15:02.207Z,12.3
2022-10-22T08:16:02.131Z,12.3
2022-10-22T08:17:02.022Z,12.4
2022-10-22T08:18:01.907Z,12.3
2022-10-22T08:19:01.855Z,12.3
2022-10-22T08:20:01.777Z,12.4
2022-10-22T08:21:01.720Z,12.4
2022-10-22T08:22:01.667Z,12.4
2022-10-22T08:23:01.603Z,12.4
2022-10-22T08:24:01.580Z,12.5
2022-10-22T08:25:01.558Z,12.5
2022-10-22T08:26:01.444Z,12.4
2022-10-22T08:27:01.387Z,12.4
2022-10-22T08:28:02.309Z,12.4
2022-10-22T08:29:02.262Z,12.5
2022-10-22T08:30:02.299Z,12.5
2022-10-22T08:31:02.188Z,12.4
2022-10-22T08:32:02.230Z,12.4
2022-10-22T08:33:02.189Z,12.4
2022-10-22T08:34:02.126Z,12.4
2022-10-22T08:35:02.054Z,12.4
2022-10-22T08:36:01.999Z,12.5
2022-10-22T08:37:01.948Z,12.5
2022-10-22T08:38:01.889Z,12.6
2022-10-22T08:39:01.794Z,12.6
2022-10-22T08:40:01.694Z,12.6
2022-10-22T08:41:01.584Z,12.6
2022-10-22T08:42:01.530Z,12.5
2022-10-22T08:43:01.423Z,12.5
2022-10-22T08:44:01.364Z,12.5
2022-10-22T08:45:04.565Z,12.5
2022-10-22T08:46:01.402Z,12.5
2022-10-22T08:47:02.173Z,12.6
2022-10-22T08:48:02.143Z,12.6
2022-10-22T08:49:02.138Z,12.5
2022-10-22T08:50:02.160Z,12.5
2022-10-22T08:51:02.139Z,13
2022-10-22T08:52:02.049Z,13.1
2022-10-22T08:53:01.995Z,13.8
2022-10-22T08:54:01.911Z,13.8
2022-10-22T08:55:01.826Z,14.2
2022-10-22T08:56:01.757Z,13.4
2022-10-22T08:57:01.680Z,13
2022-10-22T08:58:01.606Z,12.8
2022-10-22T08:59:01.504Z,12.9
2022-10-22T09:00:01.387Z,12.9
2022-10-22T09:01:01.367Z,12.8
2022-10-22T09:02:01.547Z,12.8
2022-10-22T09:03:01.484Z,12.8
2022-10-22T09:04:01.406Z,12.8
2022-10-22T09:05:02.353Z,12.8
2022-10-22T09:06:02.234Z,12.8
2022-10-22T09:07:02.220Z,12.8
2022-10-22T09:08:02.150Z,12.7
2022-10-22T09:09:02.155Z,12.8
2022-10-22T09:10:01.364Z,12.8
2022-10-22T09:11:02.319Z,12.8
2022-10-22T09:12:02.231Z,12.8
2022-10-22T09:13:02.213Z,12.9
2022-10-22T09:14:02.247Z,12.8
2022-10-22T09:15:02.249Z,12.9
2022-10-22T09:16:02.246Z,12.9
2022-10-22T09:17:02.101Z,13
2022-10-22T09:18:02.158Z,12.9
2022-10-22T09:19:02.077Z,12.8
2022-10-22T09:20:02.065Z,12.9
2022-10-22T09:21:01.489Z,12.9
2022-10-22T09:22:01.460Z,12.9
2022-10-22T09:23:01.412Z,12.9
2022-10-22T09:24:01.375Z,12.9
2022-10-22T09:25:02.584Z,12.9
2022-10-22T09:26:01.362Z,12.9
2022-10-22T09:27:02.397Z,12.8
2022-10-22T09:28:02.246Z,12.8
2022-10-22T09:29:02.303Z,12.8
2022-10-22T09:30:02.119Z,12.8
2022-10-22T09:31:02.205Z,12.9
2022-10-22T09:32:02.222Z,12.9
2022-10-22T09:33:02.291Z,12.9
2022-10-22T09:34:02.135Z,12.8
2022-10-22T09:35:02.222Z,12.8
2022-10-22T09:36:02.060Z,12.8
2022-10-22T09:37:02.129Z,12.8
2022-10-22T09:38:01.971Z,12.8
2022-10-22T09:39:01.902Z,12.9
2022-10-22T09:40:01.946Z,12.9
2022-10-22T09:41:01.799Z,12.8
2022-10-22T09:42:01.720Z,12.8
2022-10-22T09:43:01.680Z,12.9
2022-10-22T09:44:01.530Z,12.9
2022-10-22T09:45:01.527Z,12.8
2022-10-22T09:46:01.357Z,12.8
2022-10-22T09:47:01.412Z,12.8
2022-10-22T09:48:02.268Z,12.8
2022-10-22T09:49:01.511Z,12.8
2022-10-22T09:50:01.519Z,12.8
2022-10-22T09:51:01.345Z,12.9
2022-10-22T09:52:02.390Z,12.9
2022-10-22T09:53:02.250Z,12.9
2022-10-22T09:54:02.284Z,12.9
2022-10-22T09:55:02.144Z,12.8
2022-10-22T09:56:02.193Z,12.8
2022-10-22T09:57:02.051Z,12.9
2022-10-22T09:58:02.111Z,12.8
2022-10-22T09:59:02.067Z,12.8
2022-10-22T10:00:01.867Z,12.8
2022-10-22T10:01:01.810Z,12.8
2022-10-22T10:02:08.357Z,12.8
2022-10-22T10:03:01.374Z,12.8
2022-10-22T10:04:03.449Z,12.8
2022-10-22T10:05:01.514Z,12.7
2022-10-22T10:06:03.096Z,12.8
2022-10-22T10:07:01.976Z,12.9
2022-10-22T10:08:01.889Z,12.8
2022-10-22T10:09:01.804Z,12.8
2022-10-22T10:10:01.895Z,12.8
2022-10-22T10:11:01.833Z,12.9
2022-10-22T10:12:01.727Z,12.8
2022-10-22T10:13:01.668Z,12.8
2022-10-22T10:14:01.648Z,12.8
2022-10-22T10:15:01.636Z,12.9
2022-10-22T10:16:01.531Z,12.9
2022-10-22T10:17:01.793Z,12.9
2022-10-22T10:18:01.750Z,12.8
2022-10-22T10:19:01.645Z,12.9
2022-10-22T10:20:03.028Z,12.9
2022-10-22T10:21:02.391Z,12.8
2022-10-22T10:22:01.555Z,12.9
2022-10-22T10:23:01.461Z,12.8
2022-10-22T10:24:01.399Z,12.8
2022-10-22T10:25:01.307Z,12.8
2022-10-22T10:26:02.304Z,12.7
2022-10-22T10:27:02.315Z,12.8
2022-10-22T10:28:02.250Z,12.8
2022-10-22T10:29:02.219Z,12.8
2022-10-22T10:30:02.163Z,12.8
2022-10-22T10:31:02.057Z,12.8
2022-10-22T10:32:01.907Z,12.8
2022-10-22T10:33:01.800Z,12.8
2022-10-22T10:34:01.737Z,12.8
2022-10-22T10:35:01.622Z,12.8
2022-10-22T10:36:01.552Z,12.8
2022-10-22T10:37:01.431Z,12.8
2022-10-22T10:38:01.398Z,12.8
2022-10-22T10:39:02.336Z,12.8
2022-10-22T10:40:02.273Z,12.8
2022-10-22T10:41:02.252Z,12.8
2022-10-22T10:42:02.145Z,12.8
2022-10-22T10:43:02.096Z,12.8
2022-10-22T10:44:02.103Z,12.8
2022-10-22T10:45:02.019Z,12.8
2022-10-22T10:46:01.968Z,12.8
2022-10-22T10:47:02.076Z,12.8
2022-10-22T10:48:02.023Z,12.8
2022-10-22T10:49:01.952Z,12.8
2022-10-22T10:50:01.912Z,12.7
2022-10-22T10:51:01.847Z,12.8
2022-10-22T10:52:01.806Z,12.9
2022-10-22T10:53:01.804Z,12.9
2022-10-22T10:54:01.634Z,12.9
2022-10-22T10:55:01.597Z,12.9
2022-10-22T10:56:01.467Z,12.9
2022-10-22T10:57:01.386Z,12.8
2022-10-22T10:58:02.302Z,12.9
2022-10-22T10:59:02.328Z,12.9
2022-10-22T11:00:02.274Z,12.9
2022-10-22T11:01:02.392Z,13
2022-10-22T11:02:02.106Z,13
2022-10-22T11:03:02.039Z,13
2022-10-22T11:04:01.982Z,13
2022-10-22T11:05:01.939Z,12.9
2022-10-22T11:06:01.889Z,13
2022-10-22T11:07:10.449Z,13
2022-10-22T11:08:01.787Z,13
2022-10-22T11:09:01.671Z,13.1
2022-10-22T11:10:01.704Z,13
2022-10-22T11:11:01.636Z,13
2022-10-22T11:12:01.551Z,13
2022-10-22T11:13:01.453Z,13
2022-10-22T11:14:01.367Z,13
2022-10-22T11:15:02.390Z,13
2022-10-22T11:16:02.281Z,13
2022-10-22T11:17:02.145Z,13
2022-10-22T11:18:02.076Z,13
2022-10-22T11:19:02.014Z,13
2022-10-22T11:20:01.971Z,13
2022-10-22T11:21:01.909Z,13
2022-10-22T11:22:01.826Z,13
2022-10-22T11:23:18.591Z,13
2022-10-22T11:24:01.715Z,13
2022-10-22T11:25:01.612Z,13.1
2022-10-22T11:26:01.492Z,13
2022-10-22T11:27:01.400Z,13.1
2022-10-22T11:28:05.610Z,13.1
2022-10-22T11:29:02.069Z,13.1
2022-10-22T11:30:01.991Z,13
2022-10-22T11:31:01.864Z,13.1
2022-10-22T11:32:01.888Z,13.1
2022-10-22T11:33:01.799Z,13
2022-10-22T11:34:10.109Z,13.1
2022-10-22T11:35:02.013Z,13
2022-10-22T11:36:01.971Z,13.1
2022-10-22T11:37:01.954Z,13
2022-10-22T11:38:01.845Z,13
2022-10-22T11:39:01.715Z,13
2022-10-22T11:40:01.627Z,13
2022-10-22T11:41:01.524Z,13.1
2022-10-22T11:42:01.436Z,13.1
2022-10-22T11:43:01.363Z,13.1
2022-10-22T11:44:02.302Z,13.1
2022-10-22T11:45:02.280Z,13
2022-10-22T11:46:02.239Z,13.1
2022-10-22T11:47:02.036Z,13.1
2022-10-22T11:48:01.999Z,13.1
2022-10-22T11:49:01.898Z,13.1
2022-10-22T11:50:01.770Z,13.1
2022-10-22T11:51:01.715Z,13.1
2022-10-22T11:52:03.011Z,13
2022-10-22T11:53:01.878Z,13.1
2022-10-22T11:54:01.807Z,13
2022-10-22T11:55:01.736Z,13
2022-10-22T11:56:01.669Z,13.1
2022-10-22T11:57:01.553Z,13
2022-10-22T11:58:01.453Z,13
2022-10-22T11:59:01.379Z,13
2022-10-22T12:00:02.343Z,13.1
2022-10-22T12:01:02.289Z,13.1
2022-10-22T12:02:02.015Z,13.1
2022-10-22T12:03:01.908Z,13.1
2022-10-22T12:04:01.849Z,13.1
2022-10-22T12:05:01.797Z,13.1
2022-10-22T12:06:01.672Z,13.1
2022-10-22T12:07:01.632Z,13.1
2022-10-22T12:08:01.572Z,13.1
2022-10-22T12:09:01.573Z,13.1
2022-10-22T12:10:01.611Z,13
2022-10-22T12:11:01.508Z,13.1
2022-10-22T12:12:01.419Z,13
2022-10-22T12:13:01.375Z,13
2022-10-22T12:14:02.305Z,13
2022-10-22T12:15:02.254Z,12.9
2022-10-22T12:16:02.194Z,13
2022-10-22T12:17:02.159Z,12.9
2022-10-22T12:18:02.146Z,12.9
2022-10-22T12:19:02.210Z,12.8
2022-10-22T12:20:02.470Z,12.8
2022-10-22T12:21:01.889Z,12.8
2022-10-22T12:22:01.810Z,12.9
2022-10-22T12:23:01.796Z,12.8
2022-10-22T12:24:01.700Z,12.8
2022-10-22T12:25:01.631Z,12.9
2022-10-22T12:26:01.582Z,12.8
2022-10-22T12:27:01.462Z,12.8
2022-10-22T12:28:01.371Z,12.7
2022-10-22T12:29:01.344Z,12.8
2022-10-22T12:30:02.313Z,12.8
2022-10-22T12:31:01.358Z,12.7
2022-10-22T12:32:02.237Z,12.6
2022-10-22T12:33:02.214Z,12.6
2022-10-22T12:34:02.154Z,12.6
2022-10-22T12:35:02.060Z,12.5
2022-10-22T12:36:02.013Z,12.5
2022-10-22T12:37:01.961Z,12.6
2022-10-22T12:38:01.918Z,12.6
2022-10-22T12:39:01.848Z,12.6
2022-10-22T12:40:01.746Z,12.6
2022-10-22T12:41:01.618Z,12.5
2022-10-22T12:42:01.575Z,12.4
2022-10-22T12:43:01.601Z,12.5
2022-10-22T12:44:01.605Z,12.5
2022-10-22T12:45:01.529Z,12.5
2022-10-22T12:46:01.417Z,12.4
2022-10-22T12:47:02.294Z,12.4
2022-10-22T12:48:02.275Z,12.5
2022-10-22T12:49:02.219Z,12.5
2022-10-22T12:50:02.137Z,12.5
2022-10-22T12:51:02.086Z,12.5
2022-10-22T12:52:02.017Z,12.5
2022-10-22T12:53:02.016Z,12.4
2022-10-22T12:54:01.914Z,12.4
2022-10-22T12:55:01.833Z,12.5
2022-10-22T12:56:01.773Z,12.5
2022-10-22T12:57:01.716Z,12.4
2022-10-22T12:58:01.650Z,12.4
2022-10-22T12:59:01.590Z,12.4
2022-10-22T13:00:01.621Z,12.5
2022-10-22T13:01:01.911Z,12.4
2022-10-22T13:02:02.250Z,12.5
2022-10-22T13:03:02.294Z,12.6
2022-10-22T13:04:02.119Z,12.6
2022-10-22T13:05:02.087Z,12.5
2022-10-22T13:06:01.989Z,12.5
2022-10-22T13:07:01.941Z,12.5
2022-10-22T13:08:01.872Z,12.5
2022-10-22T13:09:01.889Z,12.5
2022-10-22T13:10:01.930Z,12.5
2022-10-22T13:11:01.878Z,12.4
2022-10-22T13:12:01.783Z,12.4
2022-10-22T13:13:01.667Z,12.5
2022-10-22T13:14:01.606Z,12.5
2022-10-22T13:15:01.513Z,12.5
2022-10-22T13:16:01.408Z,12.4
2022-10-22T13:17:01.418Z,12.4
2022-10-22T13:18:02.366Z,12.5
2022-10-22T13:19:02.276Z,12.4
2022-10-22T13:20:02.277Z,12.4
2022-10-22T13:21:02.152Z,12.4
2022-10-22T13:22:02.092Z,12.4
2022-10-22T13:23:02.001Z,12.4
2022-10-22T13:24:01.964Z,12.4
2022-10-22T13:25:01.858Z,12.3
2022-10-22T13:26:01.822Z,12.4
2022-10-22T13:27:01.773Z,12.3